createdAt,value
2018-12-31T00:01:07.214Z,51.50
2018-12-31T00:03:36.298Z,51.00
2018-12-31T00:06:04.789Z,50.40
2018-12-31T00:08:33.932Z,49.60
2018-12-31T00:11:03.780Z,48.80
2018-12-31T00:13:32.686Z,48.80
2018-12-31T00:16:01.308Z,48.50
2018-12-31T00:18:30.187Z,49.10
2018-12-31T00:20:58.736Z,49.40
2018-12-31T00:23:27.789Z,49.30
2018-12-31T00:25:55.862Z,49.40
2018-12-31T00:28:24.846Z,49.70
2018-12-31T00:30:53.856Z,49.80
2018-12-31T00:33:22.380Z,50.40
2018-12-31T00:35:52.701Z,50.00
2018-12-31T00:38:21.772Z,49.70
2018-12-31T00:40:51.147Z,49.60
2018-12-31T00:43:19.840Z,50.50
2018-12-31T00:45:48.425Z,50.40
2018-12-31T00:48:17.316Z,50.10
2018-12-31T00:50:46.407Z,49.30
2018-12-31T00:53:15.460Z,49.20
2018-12-31T00:55:45.151Z,49.50
2018-12-31T00:58:14.823Z,50.30
2018-12-31T01:00:44.216Z,50.70
2018-12-31T01:03:13.245Z,51.20
2018-12-31T01:05:43.863Z,51.20
2018-12-31T01:08:13.439Z,50.80
2018-12-31T01:10:43.061Z,51.20
2018-12-31T01:13:12.890Z,50.80
2018-12-31T01:15:42.622Z,50.80
2018-12-31T01:18:11.585Z,51.10
2018-12-31T01:20:41.477Z,50.80
2018-12-31T01:23:10.199Z,50.60
2018-12-31T01:25:38.698Z,50.90
2018-12-31T01:28:08.177Z,51.50
2018-12-31T01:30:37.267Z,51.50
2018-12-31T01:33:05.863Z,51.80
2018-12-31T01:35:35.647Z,52.00
2018-12-31T01:38:04.267Z,52.20
2018-12-31T01:40:33.293Z,51.90
2018-12-31T01:43:01.905Z,51.10
2018-12-31T01:45:30.950Z,51.10
2018-12-31T01:47:59.992Z,51.50
2018-12-31T01:50:28.578Z,51.80
2018-12-31T01:52:57.646Z,51.90
2018-12-31T01:55:27.737Z,52.50
2018-12-31T01:57:56.833Z,51.30
2018-12-31T02:00:25.483Z,51.30
2018-12-31T02:02:54.411Z,51.30
2018-12-31T02:05:23.483Z,51.00
2018-12-31T02:07:52.482Z,51.30
2018-12-31T02:10:22.182Z,50.50
2018-12-31T02:12:51.207Z,51.30
2018-12-31T02:15:20.183Z,52.00
2018-12-31T02:17:49.175Z,52.20
2018-12-31T02:20:17.740Z,52.50
2018-12-31T02:22:45.927Z,52.80
2018-12-31T02:25:14.470Z,52.40
2018-12-31T02:27:43.421Z,53.00
2018-12-31T02:30:12.387Z,52.70
2018-12-31T02:32:41.036Z,52.80
2018-12-31T02:35:10.277Z,52.40
2018-12-31T02:37:39.462Z,53.10
2018-12-31T02:40:08.345Z,53.40
2018-12-31T02:42:36.949Z,53.70
2018-12-31T02:45:06.208Z,53.10
2018-12-31T02:47:35.965Z,53.30
2018-12-31T02:50:04.582Z,53.10
2018-12-31T02:52:33.547Z,53.60
2018-12-31T02:55:02.102Z,53.50
2018-12-31T02:57:30.610Z,52.90
2018-12-31T03:00:00.334Z,53.10
2018-12-31T03:02:29.973Z,53.40
2018-12-31T03:04:59.680Z,53.40
2018-12-31T03:07:29.366Z,52.50
2018-12-31T03:09:57.923Z,52.10
2018-12-31T03:12:27.185Z,52.10
2018-12-31T03:14:56.197Z,52.80
2018-12-31T03:17:25.208Z,52.10
2018-12-31T03:19:53.792Z,52.10
2018-12-31T03:22:22.430Z,53.20
2018-12-31T03:24:50.998Z,53.60
2018-12-31T03:27:19.940Z,53.20
2018-12-31T03:29:49.598Z,53.20
2018-12-31T03:32:19.174Z,52.80
2018-12-31T03:34:49.441Z,52.40
2018-12-31T03:37:18.772Z,52.20
2018-12-31T03:39:47.342Z,52.30
2018-12-31T03:42:16.374Z,52.20
2018-12-31T03:44:45.296Z,51.70
2018-12-31T03:47:14.288Z,51.30
2018-12-31T03:49:43.235Z,51.20
2018-12-31T03:52:12.508Z,51.50
2018-12-31T03:54:41.579Z,52.30
2018-12-31T03:57:10.119Z,51.90
2018-12-31T03:59:38.768Z,51.90
2018-12-31T04:02:07.717Z,52.30
2018-12-31T04:04:38.123Z,51.90
2018-12-31T04:07:07.255Z,51.20
2018-12-31T04:09:36.905Z,50.70
2018-12-31T04:12:05.963Z,51.10
2018-12-31T04:14:35.678Z,50.60
2018-12-31T04:17:04.910Z,50.70
2018-12-31T04:19:34.547Z,50.70
2018-12-31T04:22:04.312Z,50.40
2018-12-31T04:24:33.516Z,51.00
2018-12-31T04:27:02.606Z,51.60
2018-12-31T04:29:33.032Z,51.60
2018-12-31T04:32:02.116Z,51.40
2018-12-31T04:34:30.623Z,51.10
2018-12-31T04:36:59.658Z,50.00
2018-12-31T04:39:28.683Z,49.90
2018-12-31T04:41:57.659Z,49.80
2018-12-31T04:44:27.402Z,49.50
2018-12-31T04:46:56.475Z,49.00
2018-12-31T04:49:25.544Z,48.70
2018-12-31T04:51:54.546Z,48.80
2018-12-31T04:54:23.951Z,49.20
2018-12-31T04:56:53.611Z,49.80
2018-12-31T04:59:22.772Z,49.80
2018-12-31T05:01:52.288Z,49.80
2018-12-31T05:04:22.124Z,49.10
2018-12-31T05:06:51.169Z,48.90
2018-12-31T05:09:21.316Z,49.10
2018-12-31T05:11:50.943Z,49.40
2018-12-31T05:14:21.104Z,49.10
2018-12-31T05:16:50.641Z,49.20
2018-12-31T05:19:20.250Z,49.70
2018-12-31T05:21:49.976Z,49.10
2018-12-31T05:24:20.047Z,49.80
2018-12-31T05:26:49.840Z,49.90
2018-12-31T05:29:18.994Z,49.80
2018-12-31T05:31:48.009Z,50.70
2018-12-31T05:34:17.666Z,50.60
2018-12-31T05:36:47.007Z,50.00
2018-12-31T05:39:16.044Z,49.50
2018-12-31T05:41:45.550Z,49.70
2018-12-31T05:44:15.209Z,49.40
2018-12-31T05:46:44.178Z,49.40
2018-12-31T05:49:13.205Z,49.00
2018-12-31T05:51:43.046Z,48.90
2018-12-31T05:54:11.978Z,48.70
2018-12-31T05:56:40.971Z,48.50
2018-12-31T05:59:10.749Z,48.00
2018-12-31T06:01:40.866Z,47.60
2018-12-31T06:04:10.169Z,47.00
2018-12-31T06:06:39.199Z,46.30
2018-12-31T06:09:07.341Z,45.90
2018-12-31T06:11:36.413Z,45.30
2018-12-31T06:14:05.340Z,45.20
2018-12-31T06:16:35.027Z,44.20
2018-12-31T06:19:04.069Z,44.00
2018-12-31T06:21:34.633Z,44.20
2018-12-31T06:24:03.315Z,43.90
2018-12-31T06:26:33.476Z,45.20
2018-12-31T06:29:03.101Z,45.20
2018-12-31T06:31:32.131Z,45.20
2018-12-31T06:34:01.178Z,45.20
2018-12-31T06:36:30.287Z,45.10
2018-12-31T06:39:00.349Z,45.20
2018-12-31T06:41:29.304Z,45.50
2018-12-31T06:43:58.287Z,45.90
2018-12-31T06:46:27.337Z,45.10
2018-12-31T06:48:57.043Z,46.20
2018-12-31T06:51:26.121Z,46.50
2018-12-31T06:53:55.745Z,46.10
2018-12-31T06:56:24.671Z,46.10
2018-12-31T06:58:53.793Z,46.30
2018-12-31T07:01:23.545Z,45.80
2018-12-31T07:03:53.254Z,45.60
2018-12-31T07:06:22.955Z,45.20
2018-12-31T07:08:51.572Z,45.20
2018-12-31T07:11:20.547Z,45.10
2018-12-31T07:13:50.590Z,45.40
2018-12-31T07:16:20.279Z,45.40
2018-12-31T07:18:49.836Z,45.80
2018-12-31T07:21:19.807Z,46.00
2018-12-31T07:23:50.629Z,45.90
2018-12-31T07:26:20.358Z,46.40
2018-12-31T07:28:49.519Z,46.70
2018-12-31T07:31:18.389Z,47.00
2018-12-31T07:33:48.047Z,47.50
2018-12-31T07:36:17.096Z,47.30
2018-12-31T07:38:46.165Z,47.10
2018-12-31T07:41:15.842Z,47.10
2018-12-31T07:43:44.991Z,46.90
2018-12-31T07:46:14.504Z,46.30
2018-12-31T07:48:44.956Z,45.70
2018-12-31T07:51:13.922Z,46.00
2018-12-31T07:53:42.504Z,45.40
2018-12-31T07:56:11.401Z,45.00
2018-12-31T07:58:40.043Z,44.60
2018-12-31T08:01:08.622Z,44.90
2018-12-31T08:03:37.637Z,45.30
2018-12-31T08:06:09.824Z,45.20
2018-12-31T08:08:38.823Z,45.20
2018-12-31T08:11:08.646Z,45.30
2018-12-31T08:13:37.706Z,45.20
2018-12-31T08:16:06.595Z,45.70
2018-12-31T08:18:36.288Z,45.20
2018-12-31T08:21:05.342Z,45.60
2018-12-31T08:23:33.893Z,46.20
2018-12-31T08:26:02.982Z,46.60
2018-12-31T08:28:32.154Z,46.50
2018-12-31T08:31:00.432Z,46.50
2018-12-31T08:33:29.844Z,45.60
2018-12-31T08:35:58.891Z,45.20
2018-12-31T08:38:27.848Z,45.80
2018-12-31T08:40:56.867Z,46.10
2018-12-31T08:43:27.079Z,46.00
2018-12-31T08:45:56.119Z,46.10
2018-12-31T08:48:24.729Z,46.10
2018-12-31T08:50:53.840Z,46.00
2018-12-31T08:53:22.746Z,45.70
2018-12-31T08:55:51.317Z,45.50
2018-12-31T08:58:20.325Z,45.30
2018-12-31T09:00:49.830Z,45.30
2018-12-31T09:03:18.821Z,45.20
2018-12-31T09:05:48.437Z,45.40
2018-12-31T09:08:17.052Z,45.40
2018-12-31T09:10:46.893Z,45.10
2018-12-31T09:13:21.774Z,45.70
2018-12-31T09:15:51.410Z,46.10
2018-12-31T09:18:20.388Z,46.20
2018-12-31T09:20:50.119Z,45.80
2018-12-31T09:23:19.165Z,45.30
2018-12-31T09:25:49.779Z,45.20
2018-12-31T09:28:19.551Z,46.00
2018-12-31T09:30:50.297Z,46.00
2018-12-31T09:33:20.298Z,45.90
2018-12-31T09:35:49.413Z,46.20
2018-12-31T09:38:19.009Z,46.30
2018-12-31T09:40:48.221Z,46.10
2018-12-31T09:43:17.356Z,45.30
2018-12-31T09:45:46.355Z,44.20
2018-12-31T09:48:15.379Z,44.70
2018-12-31T09:50:44.355Z,45.00
2018-12-31T09:53:12.861Z,45.70
2018-12-31T09:55:41.429Z,45.90
2018-12-31T09:58:09.599Z,45.80
2018-12-31T10:00:38.108Z,45.30
2018-12-31T10:03:06.666Z,46.00
2018-12-31T10:05:34.812Z,46.50
2018-12-31T10:08:02.908Z,46.20
2018-12-31T10:10:31.304Z,46.40
2018-12-31T10:13:00.274Z,45.90
2018-12-31T10:15:28.572Z,45.90
2018-12-31T10:17:57.522Z,45.80
2018-12-31T10:20:26.589Z,45.30
2018-12-31T10:22:56.815Z,45.50
2018-12-31T10:25:26.658Z,45.00
2018-12-31T10:27:56.384Z,45.30
2018-12-31T10:30:24.843Z,45.40
2018-12-31T10:32:53.891Z,45.40
2018-12-31T10:35:23.960Z,45.60
2018-12-31T10:37:52.503Z,45.20
2018-12-31T10:40:21.648Z,45.20
2018-12-31T10:42:50.057Z,45.20
2018-12-31T10:45:20.302Z,46.20
2018-12-31T10:47:48.964Z,47.10
2018-12-31T10:50:17.753Z,47.30
2018-12-31T10:52:46.043Z,47.40
2018-12-31T10:55:16.611Z,47.10
2018-12-31T10:57:45.745Z,47.40
2018-12-31T11:00:15.034Z,47.10
2018-12-31T11:02:43.625Z,46.40
2018-12-31T11:05:11.822Z,45.70
2018-12-31T11:07:40.375Z,45.80
2018-12-31T11:10:09.025Z,46.40
2018-12-31T11:12:37.170Z,46.90
2018-12-31T11:15:05.754Z,47.30
2018-12-31T11:17:34.841Z,47.40
2018-12-31T11:20:03.530Z,47.10
2018-12-31T11:22:31.633Z,46.90
2018-12-31T11:24:59.745Z,46.70
2018-12-31T11:27:28.312Z,46.20
2018-12-31T11:29:56.985Z,46.00
2018-12-31T11:32:25.585Z,45.10
2018-12-31T11:34:54.602Z,45.00
2018-12-31T11:37:23.206Z,45.30
2018-12-31T11:39:51.759Z,45.00
2018-12-31T11:42:20.832Z,45.00
2018-12-31T11:44:49.346Z,45.40
2018-12-31T11:47:17.798Z,45.70
2018-12-31T11:49:46.013Z,45.10
2018-12-31T11:52:14.994Z,45.50
2018-12-31T11:54:43.857Z,45.20
2018-12-31T11:57:12.450Z,44.50
2018-12-31T11:59:41.052Z,44.40
2018-12-31T12:02:10.052Z,43.90
2018-12-31T12:04:38.724Z,43.70
2018-12-31T12:07:07.278Z,43.20
2018-12-31T12:09:36.177Z,43.40
2018-12-31T12:12:04.809Z,43.50
2018-12-31T12:14:34.264Z,43.60
2018-12-31T12:17:03.284Z,43.50
2018-12-31T12:19:32.301Z,43.50
2018-12-31T12:22:01.287Z,43.50
2018-12-31T12:24:30.250Z,43.10
2018-12-31T12:26:59.607Z,43.00
2018-12-31T12:29:28.519Z,43.50
2018-12-31T12:31:57.067Z,43.50
2018-12-31T12:34:26.099Z,43.50
2018-12-31T12:36:55.117Z,43.80
2018-12-31T12:39:23.734Z,43.80
2018-12-31T12:41:52.445Z,44.60
2018-12-31T12:44:21.634Z,44.40
2018-12-31T12:46:50.570Z,43.70
2018-12-31T12:49:19.628Z,43.90
2018-12-31T12:51:48.630Z,43.80
2018-12-31T12:54:17.709Z,43.90
2018-12-31T12:56:46.254Z,44.00
2018-12-31T12:59:15.511Z,43.90
2018-12-31T13:01:44.453Z,44.00
2018-12-31T13:04:13.839Z,43.70
2018-12-31T13:06:43.179Z,44.50
2018-12-31T13:09:11.822Z,44.40
2018-12-31T13:11:40.825Z,44.40
2018-12-31T13:14:09.814Z,43.80
2018-12-31T13:16:39.019Z,43.90
2018-12-31T13:19:07.505Z,44.80
2018-12-31T13:21:36.384Z,44.80
2018-12-31T13:24:04.962Z,45.60
2018-12-31T13:26:33.954Z,44.80
2018-12-31T13:29:03.054Z,44.80
2018-12-31T13:31:32.077Z,44.60
2018-12-31T13:34:00.687Z,43.80
2018-12-31T13:36:30.304Z,42.90
2018-12-31T13:38:59.159Z,43.50
2018-12-31T13:41:28.743Z,43.60
2018-12-31T13:43:58.071Z,43.70
2018-12-31T13:46:27.444Z,43.90
2018-12-31T13:48:56.464Z,43.80
2018-12-31T13:51:25.083Z,45.70
2018-12-31T13:53:54.374Z,45.00
2018-12-31T13:56:23.490Z,44.70
2018-12-31T13:58:52.501Z,44.30
2018-12-31T14:01:21.689Z,44.60
2018-12-31T14:03:54.176Z,44.50
2018-12-31T14:06:23.490Z,45.00
2018-12-31T14:08:54.006Z,44.80
2018-12-31T14:11:22.796Z,44.40
2018-12-31T14:13:51.818Z,44.20
2018-12-31T14:16:20.796Z,43.40
2018-12-31T14:18:49.317Z,43.20
2018-12-31T14:21:18.988Z,43.50
2018-12-31T14:23:47.992Z,43.20
2018-12-31T14:26:17.006Z,43.00
2018-12-31T14:28:45.501Z,43.00
2018-12-31T14:31:14.051Z,42.10
2018-12-31T14:33:43.094Z,41.90
2018-12-31T14:36:12.147Z,41.90
2018-12-31T14:38:41.133Z,41.80
2018-12-31T14:41:11.212Z,41.80
2018-12-31T14:43:40.151Z,42.60
2018-12-31T14:46:10.019Z,42.80
2018-12-31T14:48:39.725Z,43.10
2018-12-31T14:51:08.756Z,42.70
2018-12-31T14:53:38.174Z,41.90
2018-12-31T14:56:07.161Z,41.40
2018-12-31T14:58:36.210Z,41.80
2018-12-31T15:01:04.808Z,42.10
2018-12-31T15:03:33.407Z,41.90
2018-12-31T15:06:03.619Z,41.70
2018-12-31T15:08:33.400Z,41.30
2018-12-31T15:11:03.135Z,41.10
2018-12-31T15:13:31.766Z,41.00
2018-12-31T15:16:01.527Z,40.70
2018-12-31T15:18:31.643Z,40.40
2018-12-31T15:21:01.342Z,40.70
2018-12-31T15:23:31.471Z,40.80
2018-12-31T15:26:01.148Z,40.60
2018-12-31T15:28:30.167Z,40.50
2018-12-31T15:30:59.292Z,40.20
2018-12-31T15:33:28.974Z,39.60
2018-12-31T15:35:58.664Z,40.50
2018-12-31T15:38:28.479Z,41.40
2018-12-31T15:40:58.312Z,41.40
2018-12-31T15:43:27.388Z,41.00
2018-12-31T15:45:56.989Z,40.70
2018-12-31T15:48:25.592Z,39.80
2018-12-31T15:50:55.177Z,39.70
2018-12-31T15:53:24.333Z,39.70
2018-12-31T15:55:53.345Z,40.00
2018-12-31T15:58:23.716Z,41.20
2018-12-31T16:00:53.380Z,41.80
2018-12-31T16:03:23.033Z,42.20
2018-12-31T16:05:52.720Z,42.20
2018-12-31T16:08:22.566Z,42.00
2018-12-31T16:10:52.381Z,41.70
2018-12-31T16:13:22.101Z,41.40
2018-12-31T16:15:50.698Z,42.00
2018-12-31T16:18:19.331Z,42.20
2018-12-31T16:20:48.455Z,42.70
2018-12-31T16:23:17.132Z,42.20
2018-12-31T16:25:46.323Z,41.40
2018-12-31T16:28:14.534Z,40.90
2018-12-31T16:30:42.738Z,41.20
2018-12-31T16:33:11.448Z,41.50
2018-12-31T16:35:39.561Z,41.70
2018-12-31T16:38:08.359Z,41.30
2018-12-31T16:40:37.347Z,41.40
2018-12-31T16:43:05.440Z,41.50
2018-12-31T16:45:34.132Z,41.70
2018-12-31T16:48:02.225Z,41.20
2018-12-31T16:50:30.789Z,40.80
2018-12-31T16:52:59.759Z,40.30
2018-12-31T16:55:28.349Z,39.60
2018-12-31T16:57:57.246Z,40.10
2018-12-31T17:00:25.904Z,40.20
2018-12-31T17:02:54.956Z,40.90
2018-12-31T17:05:24.187Z,41.50
2018-12-31T17:07:52.804Z,41.40
2018-12-31T17:10:21.824Z,41.70
2018-12-31T17:12:51.317Z,41.70
2018-12-31T17:15:20.308Z,42.00
2018-12-31T17:17:48.874Z,41.70
2018-12-31T17:20:17.890Z,41.10
2018-12-31T17:22:46.748Z,41.10
2018-12-31T17:25:16.006Z,41.20
2018-12-31T17:27:45.499Z,41.30
2018-12-31T17:30:14.190Z,41.30
2018-12-31T17:32:43.157Z,41.70
2018-12-31T17:35:12.161Z,41.30
2018-12-31T17:37:41.271Z,41.30
2018-12-31T17:40:09.862Z,40.60
2018-12-31T17:42:38.954Z,40.50
2018-12-31T17:45:08.281Z,40.60
2018-12-31T17:47:37.470Z,40.50
2018-12-31T17:50:07.987Z,40.30
2018-12-31T17:52:37.358Z,39.80
2018-12-31T17:55:08.364Z,39.60
2018-12-31T17:57:37.275Z,40.10
2018-12-31T18:00:05.884Z,39.00
2018-12-31T18:02:34.007Z,39.20
2018-12-31T18:05:03.160Z,39.30
2018-12-31T18:07:32.156Z,39.20
2018-12-31T18:10:00.680Z,38.80
2018-12-31T18:12:29.272Z,39.30
2018-12-31T18:14:58.023Z,39.50
2018-12-31T18:17:27.128Z,39.30
2018-12-31T18:19:55.426Z,39.20
2018-12-31T18:22:24.066Z,38.70
2018-12-31T18:24:52.160Z,39.00
2018-12-31T18:27:20.747Z,38.70
2018-12-31T18:29:49.937Z,38.80
2018-12-31T18:32:18.907Z,38.70
2018-12-31T18:34:47.673Z,38.60
2018-12-31T18:37:16.333Z,38.50
2018-12-31T18:39:49.243Z,38.70
2018-12-31T18:42:16.444Z,38.90
2018-12-31T18:44:44.611Z,38.70
2018-12-31T18:47:14.250Z,38.90
2018-12-31T18:49:43.699Z,38.80
2018-12-31T18:52:13.027Z,38.80
2018-12-31T18:54:42.048Z,38.80
2018-12-31T18:57:10.537Z,38.70
2018-12-31T18:59:39.211Z,38.90
2018-12-31T19:02:08.180Z,39.10
2018-12-31T19:04:36.832Z,39.40
2018-12-31T19:07:05.493Z,39.30
2018-12-31T19:09:34.195Z,40.50
2018-12-31T19:12:02.311Z,40.00
2018-12-31T19:14:30.571Z,40.20
2018-12-31T19:16:59.052Z,39.90
2018-12-31T19:19:27.532Z,40.50
2018-12-31T19:21:56.144Z,40.90
2018-12-31T19:24:24.757Z,40.50
2018-12-31T19:26:53.049Z,40.40
2018-12-31T19:29:21.604Z,40.20
2018-12-31T19:31:50.097Z,40.00
2018-12-31T19:34:19.126Z,39.70
2018-12-31T19:36:48.209Z,40.20
2018-12-31T19:39:16.293Z,40.10
2018-12-31T19:41:44.840Z,40.30
2018-12-31T19:44:13.549Z,40.30
2018-12-31T19:46:42.326Z,40.70
2018-12-31T19:49:11.152Z,41.40
2018-12-31T19:51:39.940Z,41.40
2018-12-31T19:54:08.504Z,41.10
2018-12-31T19:56:37.090Z,41.00
2018-12-31T19:59:05.281Z,40.70
2018-12-31T20:01:34.369Z,40.20
2018-12-31T20:04:02.523Z,40.50
2018-12-31T20:06:31.192Z,40.90
2018-12-31T20:09:00.153Z,40.80
2018-12-31T20:11:29.226Z,40.20
2018-12-31T20:13:57.825Z,40.30
2018-12-31T20:16:26.166Z,40.70
2018-12-31T20:18:54.747Z,40.70
2018-12-31T20:21:24.095Z,40.30
2018-12-31T20:23:52.890Z,40.30
2018-12-31T20:26:24.569Z,40.00
2018-12-31T20:28:52.871Z,39.60
2018-12-31T20:31:21.001Z,39.80
2018-12-31T20:33:49.095Z,40.20
2018-12-31T20:36:17.325Z,39.90
2018-12-31T20:38:47.058Z,40.00
2018-12-31T20:41:17.054Z,39.90
2018-12-31T20:43:45.647Z,39.80
2018-12-31T20:46:14.232Z,39.80
2018-12-31T20:48:42.334Z,39.70
2018-12-31T20:51:11.305Z,40.00
2018-12-31T20:53:41.027Z,40.10
2018-12-31T20:56:09.620Z,40.10
2018-12-31T20:58:37.794Z,40.40
2018-12-31T21:01:06.593Z,41.30
2018-12-31T21:03:35.606Z,42.40
2018-12-31T21:06:05.041Z,43.10
2018-12-31T21:08:33.259Z,43.00
2018-12-31T21:11:01.396Z,43.20
2018-12-31T21:13:30.007Z,43.80
2018-12-31T21:15:58.619Z,44.10
2018-12-31T21:18:27.059Z,44.50
2018-12-31T21:20:55.226Z,44.40
2018-12-31T21:23:23.714Z,44.30
2018-12-31T21:25:52.706Z,44.80
2018-12-31T21:28:20.863Z,45.70
2018-12-31T21:30:48.971Z,45.10
2018-12-31T21:33:18.107Z,44.50
2018-12-31T21:35:46.855Z,44.50
2018-12-31T21:38:15.486Z,44.50
2018-12-31T21:40:44.112Z,44.20
2018-12-31T21:43:12.714Z,43.50
2018-12-31T21:45:41.662Z,43.50
2018-12-31T21:48:10.631Z,43.40
2018-12-31T21:50:39.318Z,43.10
2018-12-31T21:53:07.841Z,42.30
2018-12-31T21:55:37.024Z,41.70
2018-12-31T21:58:06.705Z,42.10
2018-12-31T22:00:34.813Z,42.40
2018-12-31T22:03:02.946Z,42.40
2018-12-31T22:05:31.495Z,42.30
2018-12-31T22:08:00.099Z,42.20
2018-12-31T22:10:29.135Z,41.90
2018-12-31T22:12:57.738Z,42.00
2018-12-31T22:15:26.305Z,42.50
2018-12-31T22:17:54.430Z,43.70
2018-12-31T22:20:23.030Z,44.20
2018-12-31T22:22:51.496Z,44.40
2018-12-31T22:25:20.433Z,44.30
2018-12-31T22:27:49.024Z,44.20
2018-12-31T22:30:17.518Z,44.00
2018-12-31T22:32:46.235Z,43.60
2018-12-31T22:35:15.512Z,43.40
2018-12-31T22:37:45.694Z,43.50
2018-12-31T22:40:15.408Z,44.00
2018-12-31T22:42:45.079Z,44.60
2018-12-31T22:45:13.199Z,44.80
2018-12-31T22:47:42.330Z,44.90
2018-12-31T22:50:11.013Z,44.80
2018-12-31T22:52:39.145Z,45.10
2018-12-31T22:55:07.574Z,44.90
2018-12-31T22:57:35.748Z,45.00
2018-12-31T23:00:04.361Z,45.40
2018-12-31T23:02:32.507Z,45.90
2018-12-31T23:05:01.033Z,45.50
2018-12-31T23:07:30.051Z,45.10
2018-12-31T23:09:58.173Z,44.20
2018-12-31T23:12:26.678Z,43.90
2018-12-31T23:14:54.837Z,43.40
2018-12-31T23:17:24.127Z,43.20
2018-12-31T23:19:52.848Z,43.10
2018-12-31T23:22:21.407Z,42.50
2018-12-31T23:24:49.525Z,42.60
2018-12-31T23:27:18.153Z,43.10
2018-12-31T23:29:46.807Z,42.50
2018-12-31T23:32:16.221Z,43.00
2018-12-31T23:34:44.866Z,42.90
2018-12-31T23:37:13.332Z,43.00
2018-12-31T23:39:42.289Z,43.50
2018-12-31T23:42:10.457Z,43.80
2018-12-31T23:44:39.091Z,44.50
2018-12-31T23:47:07.211Z,44.70
2018-12-31T23:49:36.419Z,44.20
2018-12-31T23:52:05.366Z,43.80
2018-12-31T23:54:33.989Z,43.90
2018-12-31T23:57:02.590Z,44.30
2018-12-31T23:59:31.424Z,44.80
